Time;durP1;ratioP1;P1;durP2;ratioP2;P2;SDS_P1;SDS_P2;PMS_P1;PMS_P2;Temp;Humidity;BMP_temperature;BMP_pressure;BME280_temperature;BME280_humidity;BME280_pressure;Samples;Min_cycle;Max_cycle;Signal;HPM_P1;HPM_P2
2021/04/17 00:01:46;;;;;;;12.97;9.13;;;;;;;;;;5111913;27;20775;-71
2021/04/17 00:04:27;;;;;;;14.63;9.17;;;;;;;;;;5111040;27;20751;-70
2021/04/17 00:07:08;;;;;;;15.43;8.87;;;;;;;;;;5111966;27;20717;-71
2021/04/17 00:09:45;;;;;;;10.43;7.77;;;;;;;;;;5111902;27;20721;-71
2021/04/17 00:12:22;;;;;;;11.07;8.13;;;;;;;;;;5111819;27;20747;-71
2021/04/17 00:14:59;;;;;;;15.13;8.70;;;;;;;;;;5090928;27;20749;-71
2021/04/17 00:17:35;;;;;;;11.83;9.23;;;;;;;;;;5111712;27;20729;-71
2021/04/17 00:20:12;;;;;;;11.03;8.00;;;;;;;;;;5091545;27;20721;-71
2021/04/17 00:22:50;;;;;;;13.93;9.60;;;;;;;;;;5111922;27;20722;-70
2021/04/17 00:25:27;;;;;;;13.27;8.53;;;;;;;;;;5090973;27;20745;-70
2021/04/17 00:28:03;;;;;;;13.17;9.50;;;;;;;;;;5111563;27;20722;-70
2021/04/17 00:30:40;;;;;;;13.00;9.30;;;;;;;;;;5091560;27;20722;-70
2021/04/17 00:33:16;;;;;;;14.53;9.33;;;;;;;;;;5111371;27;20741;-70
2021/04/17 00:35:53;;;;;;;12.47;9.23;;;;;;;;;;5111943;27;20747;-71
2021/04/17 00:38:30;;;;;;;13.50;9.03;;;;;;;;;;5111912;27;20779;-71
2021/04/17 00:41:09;;;;;;;11.93;8.87;;;;;;;;;;5111515;27;20825;-71
2021/04/17 00:43:45;;;;;;;13.27;9.53;;;;;;;;;;5111836;27;20749;-71
2021/04/17 00:46:22;;;;;;;12.60;9.37;;;;;;;;;;5091546;28;20715;-71
2021/04/17 00:49:00;;;;;;;12.17;9.43;;;;;;;;;;5111265;27;20747;-71
2021/04/17 00:51:37;;;;;;;13.70;9.63;;;;;;;;;;5091506;27;21292;-71
2021/04/17 00:54:13;;;;;;;13.87;9.53;;;;;;;;;;5091204;27;20788;-71
2021/04/17 00:56:50;;;;;;;13.10;9.93;;;;;;;;;;5111861;27;21310;-70
2021/04/17 00:59:26;;;;;;;14.17;10.30;;;;;;;;;;5091571;28;21300;-71
2021/04/17 01:02:03;;;;;;;13.50;9.73;;;;;;;;;;5111926;27;20747;-71
2021/04/17 01:04:43;;;;;;;13.33;9.67;;;;;;;;;;5111857;27;20739;-70
2021/04/17 01:07:25;;;;;;;14.50;9.70;;;;;;;;;;5111844;27;20755;-71
2021/04/17 01:10:13;;;;;;;13.43;10.20;;;;;;;;;;5111937;27;20740;-71
2021/04/17 01:12:54;;;;;;;13.90;10.10;;;;;;;;;;5111653;27;20720;-70
2021/04/17 01:15:30;;;;;;;14.87;10.63;;;;;;;;;;5111834;27;20744;-71
2021/04/17 01:18:07;;;;;;;12.87;9.20;;;;;;;;;;5111579;27;20719;-70
2021/04/17 01:20:49;;;;;;;14.10;9.57;;;;;;;;;;5091534;27;21153;-71
2021/04/17 01:23:44;;;;;;;13.30;9.27;;;;;;;;;;5091526;28;20722;-70
2021/04/17 01:26:24;;;;;;;14.47;10.03;;;;;;;;;;5091465;27;20723;-71
2021/04/17 01:29:00;;;;;;;14.70;10.03;;;;;;;;;;5111896;27;20713;-71
2021/04/17 01:31:40;;;;;;;15.13;9.87;;;;;;;;;;5111857;27;20755;-71
2021/04/17 01:34:18;;;;;;;14.67;10.40;;;;;;;;;;5090711;27;20735;-70
2021/04/17 01:36:57;;;;;;;15.53;10.33;;;;;;;;;;5111960;27;20731;-70
2021/04/17 01:39:34;;;;;;;15.43;10.50;;;;;;;;;;5111879;27;20732;-70
2021/04/17 01:42:15;;;;;;;15.50;10.60;;;;;;;;;;5111901;27;20729;-70
2021/04/17 01:44:51;;;;;;;15.30;9.80;;;;;;;;;;5111359;27;20737;-70
2021/04/17 01:47:28;;;;;;;13.47;9.87;;;;;;;;;;5111847;27;20723;-70
2021/04/17 01:50:06;;;;;;;14.70;10.07;;;;;;;;;;5111928;27;20717;-70
2021/04/17 01:52:46;;;;;;;13.67;9.57;;;;;;;;;;5111893;27;20729;-70
2021/04/17 01:55:23;;;;;;;14.23;10.00;;;;;;;;;;5111151;27;20738;-70
2021/04/17 01:58:02;;;;;;;14.70;10.40;;;;;;;;;;5090975;27;20733;-71
2021/04/17 02:00:39;;;;;;;14.77;10.30;;;;;;;;;;5111918;27;20728;-70
2021/04/17 02:03:15;;;;;;;13.67;10.17;;;;;;;;;;5111529;27;20717;-70
2021/04/17 02:05:54;;;;;;;15.33;10.53;;;;;;;;;;5091532;27;21133;-70
2021/04/17 02:08:35;;;;;;;13.83;9.87;;;;;;;;;;5111874;27;21077;-70
2021/04/17 02:11:12;;;;;;;16.87;10.50;;;;;;;;;;5111596;27;20743;-70
2021/04/17 02:13:48;;;;;;;13.53;9.50;;;;;;;;;;5111722;27;20733;-70
2021/04/17 02:16:47;;;;;;;16.77;11.30;;;;;;;;;;5111939;27;20721;-70
2021/04/17 02:19:38;;;;;;;14.70;10.47;;;;;;;;;;5090750;27;21087;-70
2021/04/17 02:22:15;;;;;;;15.67;10.77;;;;;;;;;;5091604;28;21305;-70
2021/04/17 02:24:52;;;;;;;16.13;10.17;;;;;;;;;;5111343;27;20733;-70
2021/04/17 02:27:29;;;;;;;13.23;9.30;;;;;;;;;;5131723;27;20729;-70
2021/04/17 02:30:07;;;;;;;14.97;10.60;;;;;;;;;;5111896;27;20713;-70
2021/04/17 02:32:43;;;;;;;15.17;10.63;;;;;;;;;;5091146;27;21179;-70
2021/04/17 02:35:19;;;;;;;14.70;10.50;;;;;;;;;;5111807;27;20791;-70
2021/04/17 02:37:56;;;;;;;14.20;10.27;;;;;;;;;;5091541;28;20719;-70
2021/04/17 02:40:33;;;;;;;14.27;9.80;;;;;;;;;;5111879;27;21077;-70
2021/04/17 02:43:09;;;;;;;14.60;10.53;;;;;;;;;;5091551;28;20738;-70
2021/04/17 02:45:46;;;;;;;17.97;11.63;;;;;;;;;;5111882;27;20724;-70
2021/04/17 02:48:22;;;;;;;15.07;10.80;;;;;;;;;;5091145;27;21157;-70
2021/04/17 02:50:59;;;;;;;17.50;11.33;;;;;;;;;;5125429;22;20850;-75
2021/04/17 02:53:36;;;;;;;17.20;12.10;;;;;;;;;;5107940;27;20741;-75
2021/04/17 02:56:12;;;;;;;15.47;11.00;;;;;;;;;;5086030;27;20785;-75
2021/04/17 02:58:49;;;;;;;15.53;10.93;;;;;;;;;;5091596;28;20791;-75
2021/04/17 03:01:25;;;;;;;15.53;10.37;;;;;;;;;;5111861;27;20717;-75
2021/04/17 03:04:02;;;;;;;19.90;11.90;;;;;;;;;;5111146;27;20786;-75
2021/04/17 03:06:39;;;;;;;14.37;10.60;;;;;;;;;;5091582;27;21349;-75
2021/04/17 03:09:15;;;;;;;17.07;11.63;;;;;;;;;;5091522;28;20783;-75
2021/04/17 03:11:52;;;;;;;17.43;11.77;;;;;;;;;;5091448;27;20768;-75
2021/04/17 03:14:29;;;;;;;15.40;10.70;;;;;;;;;;5111846;27;20803;-75
2021/04/17 03:17:05;;;;;;;16.97;11.83;;;;;;;;;;5111406;27;20741;-76
2021/04/17 03:19:42;;;;;;;18.30;11.97;;;;;;;;;;5091516;27;20722;-75
2021/04/17 03:22:18;;;;;;;17.33;12.20;;;;;;;;;;5091541;27;21143;-75
2021/04/17 03:24:55;;;;;;;19.00;12.33;;;;;;;;;;5090947;27;20792;-75
2021/04/17 03:27:32;;;;;;;17.77;12.20;;;;;;;;;;5091233;27;20718;-75
2021/04/17 03:30:12;;;;;;;17.80;11.67;;;;;;;;;;5091531;27;21160;-75
2021/04/17 03:32:50;;;;;;;16.33;11.63;;;;;;;;;;5111743;27;20728;-75
2021/04/17 03:35:28;;;;;;;18.90;12.47;;;;;;;;;;5091521;28;20753;-75
2021/04/17 03:38:04;;;;;;;18.87;12.77;;;;;;;;;;5111915;27;20732;-75
2021/04/17 03:40:41;;;;;;;18.47;13.17;;;;;;;;;;5091417;27;21337;-76
2021/04/17 03:43:18;;;;;;;17.73;12.07;;;;;;;;;;5091552;27;20780;-75
2021/04/17 03:45:54;;;;;;;19.50;12.17;;;;;;;;;;5111967;27;20782;-75
2021/04/17 03:48:31;;;;;;;17.13;12.27;;;;;;;;;;5111417;27;20751;-75
2021/04/17 03:51:07;;;;;;;23.80;12.47;;;;;;;;;;5111975;27;20778;-75
2021/04/17 03:53:44;;;;;;;17.73;11.43;;;;;;;;;;5091414;27;20734;-76
2021/04/17 03:56:21;;;;;;;19.43;12.70;;;;;;;;;;5111901;27;20775;-75
2021/04/17 03:58:57;;;;;;;18.50;12.43;;;;;;;;;;5091601;27;20783;-76
2021/04/17 04:01:34;;;;;;;19.10;12.87;;;;;;;;;;5091535;27;20780;-75
2021/04/17 04:04:11;;;;;;;18.77;12.97;;;;;;;;;;5091401;27;21169;-75
2021/04/17 04:06:50;;;;;;;18.60;12.93;;;;;;;;;;5111817;27;20722;-75
2021/04/17 04:09:26;;;;;;;18.43;11.80;;;;;;;;;;5091472;28;21146;-75
2021/04/17 04:12:07;;;;;;;18.90;12.00;;;;;;;;;;5091401;27;20784;-75
2021/04/17 04:14:44;;;;;;;18.10;12.83;;;;;;;;;;5111444;27;20783;-75
2021/04/17 04:17:21;;;;;;;19.90;13.60;;;;;;;;;;5111933;27;20771;-75
2021/04/17 04:19:57;;;;;;;19.83;12.50;;;;;;;;;;5111880;27;20782;-76
2021/04/17 04:22:35;;;;;;;21.37;13.03;;;;;;;;;;5091598;28;20737;-76
2021/04/17 04:25:12;;;;;;;20.00;13.47;;;;;;;;;;5111666;27;20802;-75
2021/04/17 04:27:49;;;;;;;20.13;13.13;;;;;;;;;;5091520;28;21288;-75
2021/04/17 04:30:26;;;;;;;18.30;12.33;;;;;;;;;;5111871;27;20766;-75
2021/04/17 04:33:04;;;;;;;18.83;13.17;;;;;;;;;;5095658;27;20746;-75
2021/04/17 04:35:43;;;;;;;16.73;12.30;;;;;;;;;;5111698;27;20752;-75
2021/04/17 04:38:21;;;;;;;19.60;12.67;;;;;;;;;;5091580;27;20776;-75
2021/04/17 04:40:58;;;;;;;20.03;13.03;;;;;;;;;;5091510;28;21377;-75
2021/04/17 04:43:36;;;;;;;18.57;12.83;;;;;;;;;;5091010;27;21348;-75
2021/04/17 04:46:12;;;;;;;19.90;12.97;;;;;;;;;;5091505;27;20776;-75
2021/04/17 04:48:49;;;;;;;23.10;12.83;;;;;;;;;;5111426;27;20770;-75
2021/04/17 04:51:26;;;;;;;18.13;13.13;;;;;;;;;;5091436;28;21369;-75
2021/04/17 04:54:02;;;;;;;21.03;14.10;;;;;;;;;;5111910;27;20787;-75
2021/04/17 04:56:39;;;;;;;22.40;14.37;;;;;;;;;;5091552;27;21094;-75
2021/04/17 04:59:15;;;;;;;20.83;13.37;;;;;;;;;;5111944;27;21130;-75
2021/04/17 05:01:52;;;;;;;19.80;12.90;;;;;;;;;;5091589;27;20732;-75
2021/04/17 05:04:29;;;;;;;21.60;15.10;;;;;;;;;;5071253;28;21347;-75
2021/04/17 05:07:05;;;;;;;25.40;16.63;;;;;;;;;;5091551;27;21155;-75
2021/04/17 05:09:42;;;;;;;22.77;15.87;;;;;;;;;;5091603;27;20738;-75
2021/04/17 05:12:18;;;;;;;23.73;16.00;;;;;;;;;;5111155;27;20818;-75
2021/04/17 05:14:55;;;;;;;20.33;14.23;;;;;;;;;;5091435;27;21179;-75
2021/04/17 05:17:31;;;;;;;22.13;13.90;;;;;;;;;;5091593;28;20726;-75
2021/04/17 05:20:09;;;;;;;21.30;14.23;;;;;;;;;;5111948;27;20770;-75
2021/04/17 05:22:45;;;;;;;20.33;13.97;;;;;;;;;;5111894;27;20790;-75
2021/04/17 05:25:21;;;;;;;20.93;14.43;;;;;;;;;;5091313;27;20730;-75
2021/04/17 05:27:58;;;;;;;20.73;13.80;;;;;;;;;;5091564;27;20784;-75
2021/04/17 05:30:34;;;;;;;20.60;13.60;;;;;;;;;;5091537;28;20868;-76
2021/04/17 05:33:11;;;;;;;25.90;14.23;;;;;;;;;;5111605;27;20774;-76
2021/04/17 05:35:48;;;;;;;20.57;14.13;;;;;;;;;;5027943;28;21159;-75
2021/04/17 05:38:25;;;;;;;21.30;13.77;;;;;;;;;;5091504;27;20792;-76
2021/04/17 05:41:01;;;;;;;22.90;13.63;;;;;;;;;;5091542;27;20776;-75
2021/04/17 05:43:38;;;;;;;20.57;13.03;;;;;;;;;;5111781;27;21345;-76
2021/04/17 05:46:14;;;;;;;21.03;14.43;;;;;;;;;;5091440;27;20772;-76
2021/04/17 05:48:51;;;;;;;22.93;14.17;;;;;;;;;;5091026;28;20775;-76
2021/04/17 05:51:27;;;;;;;21.30;14.53;;;;;;;;;;5071258;28;21108;-75
2021/04/17 05:54:05;;;;;;;21.17;14.37;;;;;;;;;;5091266;28;20800;-76
2021/04/17 05:56:42;;;;;;;23.17;14.07;;;;;;;;;;5091626;27;20772;-76
2021/04/17 05:59:19;;;;;;;25.77;14.17;;;;;;;;;;5091554;28;20796;-76
2021/04/17 06:01:57;;;;;;;21.00;13.67;;;;;;;;;;5091537;27;20734;-76
2021/04/17 06:04:34;;;;;;;21.27;14.37;;;;;;;;;;5091071;28;21385;-76
2021/04/17 06:07:10;;;;;;;22.23;14.10;;;;;;;;;;5111878;27;20782;-76
2021/04/17 06:09:47;;;;;;;19.70;14.10;;;;;;;;;;5111930;27;20786;-76
2021/04/17 06:12:23;;;;;;;21.13;14.50;;;;;;;;;;5090993;28;21397;-76
2021/04/17 06:15:00;;;;;;;20.97;14.17;;;;;;;;;;5091464;27;20796;-76
2021/04/17 06:17:38;;;;;;;20.53;13.33;;;;;;;;;;5091436;27;20721;-75
2021/04/17 06:20:15;;;;;;;21.57;14.20;;;;;;;;;;5091555;27;20730;-76
2021/04/17 06:22:51;;;;;;;22.30;15.00;;;;;;;;;;5071326;28;20813;-76
2021/04/17 06:25:28;;;;;;;23.50;14.53;;;;;;;;;;5090809;28;20758;-76
2021/04/17 06:28:05;;;;;;;21.53;14.60;;;;;;;;;;5111134;27;20728;-76
2021/04/17 06:30:45;;;;;;;23.80;14.03;;;;;;;;;;5111803;27;20724;-76
2021/04/17 06:33:22;;;;;;;20.47;14.47;;;;;;;;;;5111390;27;20790;-75
2021/04/17 06:36:11;;;;;;;23.23;16.13;;;;;;;;;;5090829;28;20795;-76
2021/04/17 06:38:47;;;;;;;24.73;15.33;;;;;;;;;;5067957;27;20781;-76
2021/04/17 06:41:26;;;;;;;23.97;14.33;;;;;;;;;;5091543;28;20768;-75
2021/04/17 06:44:07;;;;;;;24.60;14.73;;;;;;;;;;5111795;27;21174;-75
2021/04/17 06:46:47;;;;;;;22.50;15.10;;;;;;;;;;5111857;27;20724;-76
2021/04/17 06:49:26;;;;;;;24.20;16.40;;;;;;;;;;5090759;28;20734;-75
2021/04/17 06:52:04;;;;;;;22.50;16.33;;;;;;;;;;5111951;27;20782;-76
2021/04/17 06:54:44;;;;;;;25.43;16.10;;;;;;;;;;5091038;27;20808;-76
2021/04/17 06:57:22;;;;;;;23.37;16.40;;;;;;;;;;5091286;28;20742;-76
2021/04/17 07:00:00;;;;;;;27.27;17.83;;;;;;;;;;5091535;28;21143;-76
2021/04/17 07:02:36;;;;;;;27.00;17.47;;;;;;;;;;5111745;27;20774;-75
2021/04/17 07:05:13;;;;;;;25.57;17.53;;;;;;;;;;5111200;27;20732;-75
2021/04/17 07:07:49;;;;;;;29.10;18.40;;;;;;;;;;5111898;27;20728;-75
2021/04/17 07:10:26;;;;;;;28.73;18.33;;;;;;;;;;5091525;28;20754;-75
2021/04/17 07:13:11;;;;;;;24.27;17.07;;;;;;;;;;5111929;27;20732;-76
2021/04/17 07:15:47;;;;;;;25.57;17.93;;;;;;;;;;5071384;28;21297;-76
2021/04/17 07:18:52;;;;;;;31.60;18.57;;;;;;;;;;5076445;28;20178;-76
2021/04/17 07:22:13;;;;;;;26.03;16.50;;;;;;;;;;5070691;28;20187;-76
2021/04/17 07:25:19;;;;;;;26.40;16.73;;;;;;;;;;5071764;28;20535;-76
2021/04/17 07:28:23;;;;;;;26.53;17.57;;;;;;;;;;5076470;28;20509;-76
2021/04/17 07:31:31;;;;;;;26.10;17.30;;;;;;;;;;5058187;28;20195;-76
2021/04/17 07:34:34;;;;;;;29.53;18.07;;;;;;;;;;5070054;28;20218;-76
2021/04/17 07:37:41;;;;;;;25.70;16.90;;;;;;;;;;5076618;28;20192;-75
2021/04/17 07:41:10;;;;;;;22.60;16.57;;;;;;;;;;5076217;28;20179;-76
2021/04/17 07:44:29;;;;;;;26.47;17.37;;;;;;;;;;5074363;28;20207;-75
2021/04/17 07:47:34;;;;;;;22.23;16.10;;;;;;;;;;5075775;28;20167;-76
2021/04/17 07:50:38;;;;;;;23.63;15.10;;;;;;;;;;5076030;28;20183;-76
2021/04/17 07:53:44;;;;;;;22.03;14.33;;;;;;;;;;5069802;28;20222;-76
2021/04/17 07:56:47;;;;;;;14.30;7.47;;;;;;;;;;5057936;28;20199;-75
2021/04/17 07:59:51;;;;;;;12.47;8.57;;;;;;;;;;5045934;28;20200;-75
2021/04/17 08:02:56;;;;;;;15.20;10.13;;;;;;;;;;5069976;28;20195;-74
2021/04/17 08:06:01;;;;;;;13.60;9.67;;;;;;;;;;5068749;28;20199;-76
2021/04/17 08:09:07;;;;;;;14.33;10.60;;;;;;;;;;5069542;28;20515;-76
2021/04/17 08:12:15;;;;;;;16.43;12.13;;;;;;;;;;5049424;28;20546;-75
2021/04/17 08:15:39;;;;;;;16.40;11.50;;;;;;;;;;5040616;28;20713;-75
2021/04/17 08:18:44;;;;;;;20.40;14.37;;;;;;;;;;5069291;28;20187;-75
2021/04/17 08:21:50;;;;;;;20.10;13.40;;;;;;;;;;5068937;28;20191;-75
2021/04/17 08:24:54;;;;;;;17.90;12.83;;;;;;;;;;5068492;28;20212;-75
2021/04/17 08:27:58;;;;;;;26.23;17.07;;;;;;;;;;5036252;28;20515;-76
2021/04/17 08:31:26;;;;;;;16.50;11.07;;;;;;;;;;5051350;28;20191;-75
2021/04/17 08:34:30;;;;;;;14.77;10.67;;;;;;;;;;5043285;28;20216;-74
2021/04/17 08:37:55;;;;;;;16.67;11.50;;;;;;;;;;5055637;28;20192;-74
2021/04/17 08:40:59;;;;;;;21.53;18.03;;;;;;;;;;5055665;28;20176;-74
2021/04/17 08:44:24;;;;;;;12.47;9.07;;;;;;;;;;5055476;28;20215;-74
2021/04/17 08:47:43;;;;;;;9.87;7.67;;;;;;;;;;5055563;28;20188;-74
2021/04/17 08:50:47;;;;;;;11.53;8.30;;;;;;;;;;5050085;28;20192;-74
2021/04/17 08:54:11;;;;;;;12.07;8.63;;;;;;;;;;5023791;28;20220;-75
2021/04/17 08:57:17;;;;;;;11.73;8.17;;;;;;;;;;5054420;28;20659;-73
2021/04/17 09:00:22;;;;;;;13.20;8.47;;;;;;;;;;5069243;22;20180;-70
2021/04/17 09:03:39;;;;;;;9.47;7.43;;;;;;;;;;5030130;28;20204;-70
2021/04/17 09:06:46;;;;;;;13.83;7.90;;;;;;;;;;5037692;28;20639;-71
2021/04/17 09:09:50;;;;;;;9.63;7.37;;;;;;;;;;5028696;28;20184;-70
2021/04/17 09:13:14;;;;;;;13.23;8.00;;;;;;;;;;5038598;28;20195;-70
2021/04/17 09:16:36;;;;;;;9.57;7.73;;;;;;;;;;5053461;28;20208;-71
2021/04/17 09:19:41;;;;;;;11.47;8.30;;;;;;;;;;5042911;28;20184;-70
2021/04/17 09:22:46;;;;;;;12.00;8.43;;;;;;;;;;5047275;28;20189;-69
2021/04/17 09:25:50;;;;;;;13.57;8.83;;;;;;;;;;5022840;28;20177;-71
2021/04/17 09:28:55;;;;;;;12.13;9.27;;;;;;;;;;5023203;28;20172;-71
2021/04/17 09:32:04;;;;;;;12.57;8.73;;;;;;;;;;5023020;28;20536;-71
2021/04/17 09:35:21;;;;;;;14.07;10.30;;;;;;;;;;5034794;28;20217;-71
2021/04/17 09:38:31;;;;;;;14.20;11.07;;;;;;;;;;5026660;28;20204;-69
2021/04/17 09:41:50;;;;;;;17.07;10.30;;;;;;;;;;5031019;28;20180;-71
2021/04/17 09:44:54;;;;;;;13.83;11.07;;;;;;;;;;5053744;28;20216;-70
2021/04/17 09:48:01;;;;;;;14.70;11.50;;;;;;;;;;5053875;28;20184;-71
2021/04/17 09:51:20;;;;;;;13.47;10.57;;;;;;;;;;5054606;28;20176;-71
2021/04/17 09:54:27;;;;;;;17.47;11.83;;;;;;;;;;5050864;28;20216;-70
2021/04/17 09:57:31;;;;;;;15.70;11.70;;;;;;;;;;5052975;28;20200;-70
2021/04/17 10:00:36;;;;;;;16.47;11.27;;;;;;;;;;5053868;28;20212;-71
2021/04/17 10:03:45;;;;;;;14.23;11.43;;;;;;;;;;5034142;28;20177;-71
2021/04/17 10:06:59;;;;;;;14.87;10.53;;;;;;;;;;5034068;28;20528;-71
2021/04/17 10:10:07;;;;;;;13.20;10.80;;;;;;;;;;5044179;28;20208;-70
2021/04/17 10:13:11;;;;;;;17.60;10.77;;;;;;;;;;5053905;28;20172;-70
2021/04/17 10:16:28;;;;;;;16.13;10.63;;;;;;;;;;5053692;28;20204;-71
2021/04/17 10:19:33;;;;;;;13.80;10.30;;;;;;;;;;5053752;28;20191;-71
2021/04/17 10:22:38;;;;;;;13.77;10.13;;;;;;;;;;5041694;28;20180;-71
2021/04/17 10:25:45;;;;;;;14.33;9.93;;;;;;;;;;5053034;28;20215;-71
2021/04/17 10:28:52;;;;;;;12.27;9.47;;;;;;;;;;5053515;28;20196;-71
2021/04/17 10:32:14;;;;;;;12.83;9.63;;;;;;;;;;5053775;28;20188;-71
2021/04/17 10:35:18;;;;;;;13.87;10.53;;;;;;;;;;5053343;28;20228;-70
2021/04/17 10:38:29;;;;;;;14.63;10.77;;;;;;;;;;5033512;28;20552;-71
2021/04/17 10:41:35;;;;;;;14.50;11.27;;;;;;;;;;5033725;28;20177;-70
2021/04/17 10:44:52;;;;;;;19.87;14.70;;;;;;;;;;5033478;28;20216;-71
2021/04/17 10:48:19;;;;;;;17.73;13.70;;;;;;;;;;5021173;28;20177;-71
2021/04/17 10:51:23;;;;;;;14.63;10.80;;;;;;;;;;5021175;28;20173;-70
2021/04/17 10:54:28;;;;;;;12.87;10.70;;;;;;;;;;5021264;28;20220;-71
2021/04/17 10:57:45;;;;;;;15.63;11.70;;;;;;;;;;5033477;28;20181;-71
2021/04/17 11:00:58;;;;;;;12.47;9.97;;;;;;;;;;5009700;28;20204;-71
2021/04/17 11:04:04;;;;;;;14.57;11.20;;;;;;;;;;5033196;28;20220;-71
2021/04/17 11:07:09;;;;;;;14.17;9.07;;;;;;;;;;5033551;28;20197;-71
2021/04/17 11:10:13;;;;;;;11.33;9.37;;;;;;;;;;5032585;28;20203;-71
2021/04/17 11:13:29;;;;;;;11.07;8.87;;;;;;;;;;5033100;28;20181;-71
2021/04/17 11:16:47;;;;;;;12.83;9.23;;;;;;;;;;5020834;28;20212;-71
2021/04/17 11:19:51;;;;;;;16.70;8.10;;;;;;;;;;5032985;28;20201;-71
2021/04/17 11:22:55;;;;;;;14.13;8.57;;;;;;;;;;5020886;28;20177;-71
2021/04/17 11:26:01;;;;;;;10.07;7.43;;;;;;;;;;5036410;28;20196;-71
2021/04/17 11:29:06;;;;;;;7.53;6.53;;;;;;;;;;5053253;28;20176;-71
2021/04/17 11:32:10;;;;;;;8.33;6.50;;;;;;;;;;5052064;28;20184;-71
2021/04/17 11:35:15;;;;;;;8.37;7.07;;;;;;;;;;5040434;28;20682;-71
2021/04/17 11:38:19;;;;;;;9.23;5.63;;;;;;;;;;5037942;28;20215;-70
2021/04/17 11:41:24;;;;;;;7.37;5.60;;;;;;;;;;5048409;28;20180;-70
2021/04/17 11:44:29;;;;;;;11.73;7.00;;;;;;;;;;5048224;28;20216;-70
2021/04/17 11:47:33;;;;;;;8.27;5.93;;;;;;;;;;5036864;28;20180;-70
2021/04/17 11:50:38;;;;;;;11.67;7.83;;;;;;;;;;5048056;28;20196;-70
2021/04/17 11:53:42;;;;;;;16.27;6.97;;;;;;;;;;5047724;28;20643;-70
2021/04/17 11:56:47;;;;;;;8.00;4.83;;;;;;;;;;5025010;28;20220;-70
2021/04/17 11:59:51;;;;;;;11.80;7.57;;;;;;;;;;5036631;28;20208;-70
2021/04/17 12:02:56;;;;;;;15.30;12.30;;;;;;;;;;5037402;28;20207;-70
2021/04/17 12:06:00;;;;;;;13.20;6.60;;;;;;;;;;5040184;28;20283;-70
2021/04/17 12:09:04;;;;;;;67.97;12.40;;;;;;;;;;5040095;28;20203;-70
2021/04/17 12:12:09;;;;;;;27.60;8.07;;;;;;;;;;5039978;28;20176;-70
2021/04/17 12:15:15;;;;;;;9.53;6.23;;;;;;;;;;5039509;28;20208;-69
2021/04/17 12:18:19;;;;;;;8.53;5.17;;;;;;;;;;5039817;28;20563;-69
2021/04/17 12:21:23;;;;;;;8.73;5.73;;;;;;;;;;5034111;28;20195;-69
2021/04/17 12:24:28;;;;;;;6.37;4.50;;;;;;;;;;5041984;28;20694;-70
2021/04/17 12:27:32;;;;;;;7.73;4.50;;;;;;;;;;5055157;28;20180;-71
2021/04/17 12:30:36;;;;;;;5.87;4.10;;;;;;;;;;5043833;28;20180;-71
2021/04/17 12:33:41;;;;;;;5.43;3.40;;;;;;;;;;5043758;28;20180;-71
2021/04/17 12:36:45;;;;;;;5.13;3.93;;;;;;;;;;5055156;28;20196;-71
2021/04/17 12:39:49;;;;;;;9.30;4.50;;;;;;;;;;5043721;28;20185;-71
2021/04/17 12:42:54;;;;;;;32.73;4.93;;;;;;;;;;5032052;28;20223;-71
2021/04/17 12:45:58;;;;;;;7.27;3.47;;;;;;;;;;5054989;28;20172;-71
2021/04/17 12:49:02;;;;;;;5.23;3.27;;;;;;;;;;5054697;28;20192;-71
2021/04/17 12:52:07;;;;;;;4.47;3.57;;;;;;;;;;5054644;28;20623;-71
2021/04/17 12:55:11;;;;;;;5.47;3.70;;;;;;;;;;5054500;28;20215;-71
2021/04/17 12:58:15;;;;;;;8.20;4.10;;;;;;;;;;5055602;28;20192;-70
2021/04/17 13:01:20;;;;;;;8.53;3.73;;;;;;;;;;5055623;28;20574;-71
2021/04/17 13:04:25;;;;;;;5.57;3.80;;;;;;;;;;5054596;28;20208;-71
2021/04/17 13:07:29;;;;;;;6.00;4.00;;;;;;;;;;5054957;28;20172;-71
2021/04/17 13:10:33;;;;;;;5.73;4.07;;;;;;;;;;5035493;28;20627;-72
2021/04/17 13:13:38;;;;;;;6.90;4.13;;;;;;;;;;5035880;28;20185;-71
2021/04/17 13:16:42;;;;;;;6.00;3.70;;;;;;;;;;5023289;28;20663;-71
2021/04/17 13:19:46;;;;;;;6.73;4.00;;;;;;;;;;5035290;28;20184;-71
2021/04/17 13:22:54;;;;;;;11.13;4.37;;;;;;;;;;5035469;28;20180;-71
2021/04/17 13:25:59;;;;;;;5.93;4.13;;;;;;;;;;5034808;28;20189;-71
2021/04/17 13:29:04;;;;;;;5.90;3.87;;;;;;;;;;5034810;28;20196;-71
2021/04/17 13:32:08;;;;;;;4.87;4.03;;;;;;;;;;5022943;28;20185;-71
2021/04/17 13:35:12;;;;;;;4.50;3.70;;;;;;;;;;5035145;28;20220;-71
2021/04/17 13:38:16;;;;;;;4.83;3.97;;;;;;;;;;5023002;28;20632;-71
2021/04/17 13:41:20;;;;;;;5.80;3.83;;;;;;;;;;5034911;28;20185;-72
2021/04/17 13:44:37;;;;;;;4.50;3.50;;;;;;;;;;5044188;28;20220;-71
2021/04/17 13:47:41;;;;;;;5.27;3.67;;;;;;;;;;5035672;28;20193;-71
2021/04/17 13:50:45;;;;;;;5.60;4.27;;;;;;;;;;5042521;28;20203;-71
2021/04/17 13:53:50;;;;;;;5.13;4.63;;;;;;;;;;5052584;28;20215;-72
2021/04/17 13:56:54;;;;;;;7.57;5.83;;;;;;;;;;5041921;28;20204;-71
2021/04/17 13:59:58;;;;;;;6.77;5.27;;;;;;;;;;5053744;28;20212;-71
2021/04/17 14:03:02;;;;;;;10.63;7.20;;;;;;;;;;5054639;28;20631;-71
2021/04/17 14:06:07;;;;;;;6.17;4.87;;;;;;;;;;5052812;28;20189;-71
2021/04/17 14:09:11;;;;;;;5.80;5.13;;;;;;;;;;5041847;28;20176;-71
2021/04/17 14:12:15;;;;;;;6.30;4.80;;;;;;;;;;5030164;28;20176;-71
2021/04/17 14:15:20;;;;;;;6.57;4.13;;;;;;;;;;5034083;28;20219;-72
2021/04/17 14:18:24;;;;;;;4.97;4.47;;;;;;;;;;5030706;28;20193;-71
2021/04/17 14:21:28;;;;;;;5.33;4.33;;;;;;;;;;5045311;28;20192;-72
2021/04/17 14:24:32;;;;;;;6.93;4.17;;;;;;;;;;5037459;28;20216;-72
2021/04/17 14:27:37;;;;;;;4.80;4.20;;;;;;;;;;5024971;28;20205;-72
2021/04/17 14:30:42;;;;;;;7.70;5.50;;;;;;;;;;5018058;28;20196;-71
2021/04/17 14:33:47;;;;;;;5.77;5.20;;;;;;;;;;5029653;28;20216;-72
2021/04/17 14:36:52;;;;;;;7.07;4.93;;;;;;;;;;5048404;28;20220;-72
2021/04/17 14:39:56;;;;;;;6.07;4.57;;;;;;;;;;5030214;28;20196;-71
2021/04/17 14:43:00;;;;;;;8.73;4.87;;;;;;;;;;5006573;28;20185;-72
2021/04/17 14:46:05;;;;;;;6.67;5.00;;;;;;;;;;5029879;28;20173;-72
2021/04/17 14:49:11;;;;;;;6.63;4.90;;;;;;;;;;5030003;28;20181;-71
2021/04/17 14:52:15;;;;;;;5.90;4.70;;;;;;;;;;5017871;28;20176;-72
2021/04/17 14:55:20;;;;;;;8.47;4.80;;;;;;;;;;5029946;28;20224;-72
2021/04/17 14:58:24;;;;;;;6.13;4.77;;;;;;;;;;5025133;28;20540;-71
2021/04/17 15:01:35;;;;;;;6.87;4.57;;;;;;;;;;5025631;28;20674;-71
2021/04/17 15:04:40;;;;;;;6.80;4.43;;;;;;;;;;5048965;28;20216;-72
2021/04/17 15:07:44;;;;;;;8.03;4.43;;;;;;;;;;5030724;28;20646;-72
2021/04/17 15:10:49;;;;;;;12.23;5.10;;;;;;;;;;5029445;28;20188;-72
2021/04/17 15:13:54;;;;;;;6.23;4.90;;;;;;;;;;5033012;28;20215;-72
2021/04/17 15:16:58;;;;;;;8.43;5.40;;;;;;;;;;5049501;28;20733;-72
2021/04/17 15:20:05;;;;;;;7.43;4.20;;;;;;;;;;5037180;28;20653;-72
2021/04/17 15:23:11;;;;;;;6.33;3.90;;;;;;;;;;5048968;28;20211;-72
2021/04/17 15:26:15;;;;;;;8.33;4.30;;;;;;;;;;5029638;28;20547;-71
2021/04/17 15:29:20;;;;;;;6.93;3.80;;;;;;;;;;5029562;28;20212;-72
2021/04/17 15:32:24;;;;;;;15.00;4.17;;;;;;;;;;5029990;28;20192;-71
2021/04/17 15:35:32;;;;;;;6.57;3.27;;;;;;;;;;5029321;28;20224;-71
2021/04/17 15:38:39;;;;;;;8.40;4.03;;;;;;;;;;5035117;28;20176;-71
2021/04/17 15:41:43;;;;;;;7.03;4.57;;;;;;;;;;5052804;28;20216;-71
2021/04/17 15:44:47;;;;;;;6.60;4.23;;;;;;;;;;5052935;28;20605;-71
2021/04/17 15:47:52;;;;;;;8.50;4.73;;;;;;;;;;5052613;28;20651;-71
2021/04/17 15:50:56;;;;;;;7.17;4.63;;;;;;;;;;5053338;28;20546;-71
2021/04/17 15:54:01;;;;;;;8.27;5.30;;;;;;;;;;5015941;28;20277;-71
2021/04/17 16:17:06;;;;;;;17.10;10.67;;;;;;;;;;5032750;28;20684;-71
2021/04/17 16:20:11;;;;;;;6.73;4.77;;;;;;;;;;5045860;28;20207;-72
2021/04/17 16:23:15;;;;;;;14.30;8.13;;;;;;;;;;5051212;28;20176;-71
2021/04/17 16:26:22;;;;;;;15.20;7.57;;;;;;;;;;5028695;28;20631;-72
2021/04/17 16:29:27;;;;;;;9.00;6.00;;;;;;;;;;5032602;28;20192;-71
2021/04/17 16:32:31;;;;;;;7.50;6.10;;;;;;;;;;5020660;28;20200;-72
2021/04/17 16:35:37;;;;;;;6.97;5.00;;;;;;;;;;5028254;28;20682;-72
2021/04/17 16:38:41;;;;;;;6.17;5.10;;;;;;;;;;5040039;28;20204;-72
2021/04/17 16:41:46;;;;;;;7.47;5.70;;;;;;;;;;5009702;28;20180;-72
2021/04/17 16:44:50;;;;;;;9.30;7.43;;;;;;;;;;5028298;28;20789;-71
2021/04/17 16:47:55;;;;;;;8.97;6.13;;;;;;;;;;5051057;28;20558;-72
2021/04/17 16:50:59;;;;;;;7.13;6.00;;;;;;;;;;5036107;28;20184;-71
2021/04/17 16:54:04;;;;;;;6.33;5.33;;;;;;;;;;5044941;28;20212;-71
2021/04/17 16:57:08;;;;;;;9.07;5.70;;;;;;;;;;5043907;28;20488;-71
2021/04/17 17:00:14;;;;;;;5.97;5.43;;;;;;;;;;5044549;28;20675;-72
2021/04/17 17:03:19;;;;;;;9.03;5.90;;;;;;;;;;5032047;28;20192;-71
2021/04/17 17:06:23;;;;;;;12.07;6.90;;;;;;;;;;5038719;28;20184;-71
2021/04/17 17:09:27;;;;;;;7.37;5.83;;;;;;;;;;5051506;28;20206;-72
2021/04/17 17:12:32;;;;;;;7.17;5.50;;;;;;;;;;5051690;28;20647;-72
2021/04/17 17:15:36;;;;;;;5.53;4.90;;;;;;;;;;5031859;28;20224;-72
2021/04/17 17:18:40;;;;;;;7.37;6.27;;;;;;;;;;5031515;28;20204;-72